createdAt,value
2018-02-11T00:00:08.339Z,3.25
2018-02-11T00:01:08.309Z,3.23
2018-02-11T00:02:18.034Z,3.23
2018-02-11T00:04:02.038Z,3.12
2018-02-11T00:05:01.835Z,3.12
2018-02-11T00:06:01.920Z,3.10
2018-02-11T00:07:01.658Z,3.05
2018-02-11T00:08:01.644Z,2.89
2018-02-11T00:09:01.683Z,2.95
2018-02-11T00:10:01.674Z,3.12
2018-02-11T00:11:01.621Z,3.16
2018-02-11T00:12:01.609Z,3.24
2018-02-11T00:13:01.599Z,3.13
2018-02-11T00:14:01.591Z,3.27
2018-02-11T00:15:01.595Z,3.12
2018-02-11T00:16:01.575Z,3.20
2018-02-11T00:17:01.591Z,3.15
2018-02-11T00:18:01.559Z,2.97
2018-02-11T00:19:01.547Z,2.95
2018-02-11T00:20:10.851Z,3.06
2018-02-11T00:21:55.272Z,3.05
2018-02-11T00:22:55.076Z,3.05
2018-02-11T00:23:54.997Z,3.10
2018-02-11T00:24:55.284Z,2.85
2018-02-11T00:25:54.907Z,3.03
2018-02-11T00:26:54.872Z,3.02
2018-02-11T00:27:54.865Z,3.07
2018-02-11T00:28:54.854Z,2.89
2018-02-11T00:29:54.860Z,2.91
2018-02-11T00:30:54.893Z,2.94
2018-02-11T00:31:54.835Z,2.82
2018-02-11T00:32:54.850Z,2.85
2018-02-11T00:33:54.815Z,2.84
2018-02-11T00:34:54.808Z,2.91
2018-02-11T00:35:54.795Z,3.05
2018-02-11T00:36:54.785Z,3.02
2018-02-11T00:37:54.776Z,3.06
2018-02-11T00:38:54.778Z,3.20
2018-02-11T00:39:54.774Z,2.92
2018-02-11T00:40:54.863Z,2.85
2018-02-11T00:41:54.750Z,3.03
2018-02-11T00:42:54.830Z,2.92
2018-02-11T00:43:54.730Z,2.95
2018-02-11T00:44:54.716Z,2.88
2018-02-11T00:45:54.707Z,3.07
2018-02-11T00:46:54.696Z,3.02
2018-02-11T00:47:54.692Z,3.10
2018-02-11T00:48:54.695Z,3.05
2018-02-11T00:49:54.670Z,2.97
2018-02-11T00:50:54.669Z,2.92
2018-02-11T00:51:54.656Z,2.97
2018-02-11T00:52:54.670Z,3.06
2018-02-11T00:53:54.661Z,3.05
2018-02-11T00:54:54.624Z,3.02
2018-02-11T00:55:54.620Z,3.09
2018-02-11T00:56:54.610Z,2.92
2018-02-11T00:57:54.599Z,2.84
2018-02-11T00:58:54.599Z,2.89
2018-02-11T00:59:54.596Z,2.92
2018-02-11T01:00:54.572Z,2.73
2018-02-11T01:01:54.561Z,2.81
2018-02-11T01:02:54.562Z,2.82
2018-02-11T01:03:54.549Z,2.79
2018-02-11T01:04:54.582Z,3.02
2018-02-11T01:05:54.554Z,2.91
2018-02-11T01:06:54.525Z,2.87
2018-02-11T01:07:54.516Z,3.03
2018-02-11T01:08:54.538Z,3.06
2018-02-11T01:09:54.493Z,2.91
2018-02-11T01:10:54.486Z,2.85
2018-02-11T01:11:54.514Z,3.00
2018-02-11T01:12:54.466Z,2.97
2018-02-11T01:13:54.458Z,3.09
2018-02-11T01:16:16.066Z,3.07
2018-02-11T01:17:15.552Z,3.05
2018-02-11T01:18:15.741Z,3.03
2018-02-11T01:19:16.140Z,3.02
2018-02-11T01:20:15.473Z,3.18
2018-02-11T01:21:15.425Z,3.12
2018-02-11T01:22:15.418Z,2.98
2018-02-11T01:23:15.413Z,3.18
2018-02-11T01:24:15.400Z,3.06
2018-02-11T01:25:15.405Z,3.09
2018-02-11T01:26:15.381Z,2.92
2018-02-11T01:27:15.375Z,3.02
2018-02-11T01:28:15.367Z,3.05
2018-02-11T01:29:15.353Z,3.10
2018-02-11T01:30:15.348Z,3.20
2018-02-11T01:31:15.356Z,3.16
2018-02-11T01:32:15.332Z,2.98
2018-02-11T01:33:15.319Z,2.97
2018-02-11T01:34:15.314Z,3.13
2018-02-11T01:35:15.321Z,3.00
2018-02-11T01:36:15.319Z,3.07
2018-02-11T01:37:15.305Z,3.00
2018-02-11T01:38:15.278Z,3.09
2018-02-11T01:39:15.277Z,2.97
2018-02-11T01:40:15.259Z,3.02
2018-02-11T01:41:15.248Z,3.10
2018-02-11T01:42:15.237Z,3.07
2018-02-11T01:43:15.230Z,3.06
2018-02-11T01:44:15.219Z,3.09
2018-02-11T01:45:15.216Z,3.12
2018-02-11T01:46:15.206Z,3.00
2018-02-11T01:47:15.193Z,3.15
2018-02-11T01:48:15.181Z,3.07
2018-02-11T01:49:15.172Z,2.88
2018-02-11T01:50:15.168Z,2.94
2018-02-11T01:51:15.157Z,3.07
2018-02-11T01:52:15.157Z,3.07
2018-02-11T01:53:15.187Z,3.13
2018-02-11T01:54:15.136Z,3.03
2018-02-11T01:55:15.129Z,3.12
2018-02-11T01:56:15.111Z,3.15
2018-02-11T01:57:15.099Z,3.05
2018-02-11T01:58:15.101Z,2.92
2018-02-11T01:59:15.086Z,2.97
2018-02-11T02:00:15.078Z,2.91
2018-02-11T02:01:15.065Z,2.95
2018-02-11T02:02:15.055Z,3.02
2018-02-11T02:03:15.044Z,3.05
2018-02-11T02:04:15.034Z,3.07
2018-02-11T02:05:15.029Z,3.10
2018-02-11T02:06:15.039Z,2.89
2018-02-11T02:07:15.016Z,3.07
2018-02-11T02:08:14.998Z,2.98
2018-02-11T02:09:14.992Z,3.03
2018-02-11T02:10:14.984Z,2.97
2018-02-11T02:11:14.986Z,3.07
2018-02-11T02:12:14.965Z,3.03
2018-02-11T02:13:14.957Z,3.00
2018-02-11T02:14:14.951Z,2.95
2018-02-11T02:15:14.977Z,2.84
2018-02-11T02:16:14.928Z,2.82
2018-02-11T02:17:14.922Z,2.81
2018-02-11T02:18:14.916Z,2.97
2018-02-11T02:19:14.946Z,2.94
2018-02-11T02:20:14.890Z,2.79
2018-02-11T02:21:14.883Z,2.95
2018-02-11T02:22:14.871Z,2.82
2018-02-11T02:23:14.866Z,2.87
2018-02-11T02:24:14.854Z,2.77
2018-02-11T02:25:14.877Z,2.85
2018-02-11T02:26:14.842Z,2.87
2018-02-11T02:27:14.847Z,2.98
2018-02-11T02:28:24.560Z,2.95
2018-02-11T02:30:08.540Z,2.89
2018-02-11T02:31:08.500Z,3.00
2018-02-11T02:32:08.371Z,2.95
2018-02-11T02:33:08.615Z,2.95
2018-02-11T02:34:08.178Z,3.02
2018-02-11T02:35:08.204Z,3.05
2018-02-11T02:36:08.165Z,3.07
2018-02-11T02:37:08.157Z,2.94
2018-02-11T02:38:08.141Z,2.92
2018-02-11T02:39:08.135Z,2.89
2018-02-11T02:40:08.125Z,3.02
2018-02-11T02:41:08.113Z,3.06
2018-02-11T02:42:08.106Z,3.03
2018-02-11T02:43:08.104Z,3.13
2018-02-11T02:44:08.094Z,3.00
2018-02-11T02:45:08.085Z,3.03
2018-02-11T02:46:08.070Z,3.10
2018-02-11T02:47:08.065Z,3.00
2018-02-11T02:48:08.053Z,3.06
2018-02-11T02:49:08.204Z,2.98
2018-02-11T02:50:08.092Z,2.95
2018-02-11T02:51:08.032Z,3.07
2018-02-11T02:52:08.116Z,3.02
2018-02-11T02:53:08.092Z,3.16
2018-02-11T02:54:08.088Z,3.05
2018-02-11T02:55:08.114Z,3.13
2018-02-11T02:56:08.149Z,3.03
2018-02-11T02:57:07.972Z,3.02
2018-02-11T02:58:07.967Z,3.06
2018-02-11T02:59:07.950Z,3.05
2018-02-11T03:00:07.953Z,3.20
2018-02-11T03:01:07.942Z,3.07
2018-02-11T03:02:07.938Z,3.03
2018-02-11T03:03:07.927Z,3.10
2018-02-11T03:04:07.943Z,3.18
2018-02-11T03:23:59.771Z,2.76
2018-02-11T03:24:59.744Z,2.73
2018-02-11T03:25:59.829Z,2.73
2018-02-11T03:26:59.692Z,2.84
2018-02-11T03:27:59.419Z,2.76
2018-02-11T03:28:59.259Z,2.84
2018-02-11T03:29:59.245Z,2.79
2018-02-11T03:30:59.289Z,2.89
2018-02-11T03:31:59.224Z,2.84
2018-02-11T03:32:59.214Z,2.87
2018-02-11T03:33:59.198Z,2.79
2018-02-11T03:34:59.194Z,2.92
2018-02-11T03:35:59.175Z,2.76
2018-02-11T03:36:59.185Z,2.74
2018-02-11T03:37:59.154Z,2.77
2018-02-11T03:38:59.142Z,2.89
2018-02-11T03:39:59.137Z,3.03
2018-02-11T03:40:59.130Z,3.00
2018-02-11T03:41:59.115Z,2.91
2018-02-11T03:42:59.104Z,3.10
2018-02-11T03:43:59.098Z,3.07
2018-02-11T03:44:59.092Z,2.98
2018-02-11T03:45:59.076Z,3.05
2018-02-11T03:46:59.065Z,3.05
2018-02-11T03:47:59.061Z,3.06
2018-02-11T03:48:59.053Z,2.95
2018-02-11T03:49:59.039Z,2.98
2018-02-11T03:50:59.038Z,3.06
2018-02-11T03:51:59.022Z,3.00
2018-02-11T03:54:29.214Z,3.07
2018-02-11T03:55:20.465Z,2.88
2018-02-11T03:56:20.142Z,3.00
2018-02-11T03:57:20.969Z,3.10
2018-02-11T03:58:20.030Z,3.25
2018-02-11T03:59:20.015Z,3.25
2018-02-11T04:00:20.009Z,3.25
2018-02-11T04:01:19.997Z,3.28
2018-02-11T04:02:20.000Z,3.20
2018-02-11T04:03:19.975Z,3.25
2018-02-11T04:04:19.973Z,3.30
2018-02-11T04:05:19.960Z,3.18
2018-02-11T04:06:19.987Z,3.30
2018-02-11T04:07:19.939Z,3.28
2018-02-11T04:08:19.940Z,3.27
2018-02-11T04:09:19.922Z,3.47
2018-02-11T04:10:19.912Z,3.49
2018-02-11T04:11:19.909Z,3.42
2018-02-11T04:12:19.936Z,3.24
2018-02-11T04:13:19.894Z,3.39
2018-02-11T04:14:19.880Z,3.43
2018-02-11T04:15:19.868Z,3.50
2018-02-11T04:16:19.887Z,3.49
2018-02-11T04:17:19.852Z,3.52
2018-02-11T04:18:19.841Z,3.47
2018-02-11T04:19:19.832Z,3.47
2018-02-11T04:20:19.828Z,3.42
2018-02-11T04:21:19.886Z,3.54
2018-02-11T04:22:19.806Z,3.52
2018-02-11T04:23:19.793Z,3.47
2018-02-11T04:24:19.787Z,3.54
2018-02-11T04:25:19.788Z,3.50
2018-02-11T04:26:19.767Z,3.64
2018-02-11T04:27:19.780Z,3.65
2018-02-11T04:28:19.749Z,3.62
2018-02-11T04:29:19.740Z,3.65
2018-02-11T04:30:19.733Z,3.65
2018-02-11T04:31:19.723Z,3.65
2018-02-11T04:32:19.715Z,3.67
2018-02-11T04:33:19.705Z,3.70
2018-02-11T04:34:19.700Z,3.64
2018-02-11T04:35:19.686Z,3.62
2018-02-11T04:36:19.678Z,3.70
2018-02-11T04:37:19.666Z,3.64
2018-02-11T04:38:19.661Z,3.72
2018-02-11T04:39:19.647Z,3.70
2018-02-11T04:40:19.641Z,3.82
2018-02-11T04:41:19.634Z,3.67
2018-02-11T04:42:19.622Z,3.71
2018-02-11T04:43:19.620Z,3.83
2018-02-11T04:44:19.607Z,3.78
2018-02-11T04:45:19.604Z,3.70
2018-02-11T04:46:19.634Z,3.76
2018-02-11T04:47:19.582Z,3.82
2018-02-11T04:48:19.681Z,3.71
2018-02-11T04:49:19.666Z,3.75
2018-02-11T04:50:19.558Z,3.76
2018-02-11T04:51:19.544Z,3.76
2018-02-11T04:52:19.537Z,3.72
2018-02-11T04:53:29.096Z,3.62
2018-02-11T04:55:13.833Z,3.75
2018-02-11T04:56:13.843Z,3.71
2018-02-11T04:57:13.801Z,3.71
2018-02-11T04:58:12.956Z,3.71
2018-02-11T04:59:12.869Z,3.79
2018-02-11T05:00:12.862Z,3.75
2018-02-11T05:01:12.852Z,3.72
2018-02-11T05:02:12.846Z,3.76
2018-02-11T05:03:12.855Z,3.80
2018-02-11T05:04:12.822Z,3.72
2018-02-11T05:05:12.814Z,3.78
2018-02-11T05:06:12.836Z,3.80
2018-02-11T05:07:12.799Z,3.75
2018-02-11T05:08:13.040Z,3.68
2018-02-11T05:09:12.784Z,3.78
2018-02-11T05:10:12.779Z,3.72
2018-02-11T05:11:12.764Z,3.78
2018-02-11T05:12:12.755Z,3.82
2018-02-11T05:13:12.832Z,3.78
2018-02-11T05:14:12.737Z,3.78
2018-02-11T05:15:12.723Z,3.71
2018-02-11T05:16:12.721Z,3.82
2018-02-11T05:17:12.714Z,3.89
2018-02-11T05:18:12.695Z,3.83
2018-02-11T05:19:12.692Z,3.85
2018-02-11T05:20:12.676Z,3.83
2018-02-11T05:21:12.725Z,3.72
2018-02-11T05:22:12.659Z,3.88
2018-02-11T05:23:12.742Z,3.90
2018-02-11T05:24:12.640Z,3.90
2018-02-11T05:25:12.644Z,3.92
2018-02-11T05:26:12.622Z,3.88
2018-02-11T05:27:12.621Z,3.89
2018-02-11T05:28:12.606Z,3.79
2018-02-11T05:29:12.601Z,3.80
2018-02-11T05:30:12.583Z,3.86
2018-02-11T05:31:12.580Z,3.83
2018-02-11T05:32:12.570Z,3.85
2018-02-11T05:33:12.557Z,3.90
2018-02-11T05:34:12.550Z,3.85
2018-02-11T05:35:12.544Z,3.88
2018-02-11T05:36:12.536Z,3.89
2018-02-11T05:37:12.528Z,3.92
2018-02-11T05:38:12.540Z,3.85
2018-02-11T05:39:12.508Z,3.70
2018-02-11T05:40:12.496Z,3.88
2018-02-11T05:41:12.485Z,3.83
2018-02-11T05:42:12.486Z,3.85
2018-02-11T05:43:12.467Z,3.92
2018-02-11T05:44:12.513Z,3.80
2018-02-11T05:45:12.500Z,3.80
2018-02-11T05:46:12.443Z,3.86
2018-02-11T05:47:12.432Z,3.86
2018-02-11T05:48:12.430Z,3.90
2018-02-11T05:49:12.415Z,3.90
2018-02-11T05:50:12.402Z,3.89
2018-02-11T05:51:12.397Z,3.89
2018-02-11T05:52:12.385Z,3.82
2018-02-11T05:53:12.384Z,3.80
2018-02-11T05:54:12.366Z,3.82
2018-02-11T05:55:12.363Z,3.88
2018-02-11T05:56:12.349Z,3.89
2018-02-11T05:57:12.341Z,3.86
2018-02-11T05:58:12.329Z,3.82
2018-02-11T05:59:12.322Z,3.86
2018-02-11T06:00:12.312Z,3.90
2018-02-11T06:01:12.312Z,3.88
2018-02-11T06:02:12.297Z,4.01
2018-02-11T06:03:12.293Z,3.92
2018-02-11T06:04:12.278Z,3.92
2018-02-11T06:05:12.265Z,3.90
2018-02-11T06:06:22.336Z,3.92
2018-02-11T06:08:06.424Z,3.85
2018-02-11T06:09:05.885Z,3.90
2018-02-11T06:10:06.041Z,3.86
2018-02-11T06:11:05.667Z,3.89
2018-02-11T06:12:05.604Z,3.89
2018-02-11T06:13:05.599Z,3.94
2018-02-11T06:14:05.590Z,3.92
2018-02-11T06:15:05.580Z,3.98
2018-02-11T06:16:05.566Z,4.01
2018-02-11T06:17:05.557Z,3.94
2018-02-11T06:18:05.577Z,3.94
2018-02-11T06:19:05.543Z,4.07
2018-02-11T06:20:05.539Z,4.00
2018-02-11T06:21:05.548Z,3.98
2018-02-11T06:22:05.513Z,4.03
2018-02-11T06:23:05.503Z,3.97
2018-02-11T06:24:05.499Z,3.96
2018-02-11T06:25:05.487Z,4.00
2018-02-11T06:26:05.508Z,3.92
2018-02-11T06:27:05.481Z,3.96
2018-02-11T06:28:05.461Z,3.97
2018-02-11T06:29:05.468Z,4.03
2018-02-11T06:30:05.458Z,3.98
2018-02-11T06:31:05.439Z,3.92
2018-02-11T06:32:05.424Z,3.98
2018-02-11T06:33:05.432Z,3.97
2018-02-11T06:34:05.407Z,4.00
2018-02-11T06:35:05.400Z,3.98
2018-02-11T06:36:05.386Z,4.00
2018-02-11T06:37:05.378Z,4.04
2018-02-11T06:38:05.369Z,3.98
2018-02-11T06:39:05.358Z,3.98
2018-02-11T06:40:05.361Z,4.01
2018-02-11T06:41:05.346Z,3.96
2018-02-11T06:42:05.562Z,3.94
2018-02-11T06:43:05.325Z,4.01
2018-02-11T06:44:05.316Z,3.94
2018-02-11T06:45:05.309Z,3.92
2018-02-11T06:46:05.304Z,4.00
2018-02-11T06:47:05.292Z,3.98
2018-02-11T06:48:05.283Z,4.06
2018-02-11T06:49:05.274Z,4.15
2018-02-11T06:50:05.263Z,4.08
2018-02-11T06:51:05.255Z,4.01
2018-02-11T06:52:05.245Z,3.98
2018-02-11T06:53:05.236Z,4.16
2018-02-11T06:54:05.225Z,4.06
2018-02-11T06:55:05.218Z,4.15
2018-02-11T06:56:05.208Z,4.15
2018-02-11T06:57:05.200Z,4.15
2018-02-11T06:58:05.315Z,4.15
2018-02-11T06:59:05.179Z,4.25
2018-02-11T07:00:05.201Z,4.14
2018-02-11T07:01:05.162Z,4.18
2018-02-11T07:02:05.155Z,4.19
2018-02-11T07:03:05.147Z,4.15
2018-02-11T07:04:05.187Z,4.25
2018-02-11T07:05:05.126Z,4.22
2018-02-11T07:06:05.119Z,4.29
2018-02-11T07:07:05.113Z,4.21
2018-02-11T07:08:05.128Z,4.33
2018-02-11T07:09:05.093Z,4.22
2018-02-11T07:10:05.095Z,4.19
2018-02-11T07:11:05.074Z,4.29
2018-02-11T07:12:05.081Z,4.32
2018-02-11T07:13:05.059Z,4.32
2018-02-11T07:14:05.056Z,4.33
2018-02-11T07:15:05.041Z,4.29
2018-02-11T07:16:05.034Z,4.24
2018-02-11T07:17:05.017Z,4.26
2018-02-11T07:18:05.014Z,4.28
2018-02-11T07:19:14.032Z,4.34
2018-02-11T07:20:58.761Z,4.39
2018-02-11T07:21:58.368Z,4.40
2018-02-11T07:22:58.424Z,4.40
2018-02-11T07:23:58.719Z,4.37
2018-02-11T07:24:58.340Z,4.40
2018-02-11T07:25:58.365Z,4.43
2018-02-11T07:26:58.323Z,4.33
2018-02-11T07:27:58.313Z,4.44
2018-02-11T07:28:58.304Z,4.37
2018-02-11T07:29:58.298Z,4.43
2018-02-11T07:30:58.286Z,4.40
2018-02-11T07:31:58.276Z,4.37
2018-02-11T07:32:58.269Z,4.40
2018-02-11T07:33:58.264Z,4.33
2018-02-11T07:34:58.251Z,4.29
2018-02-11T07:35:58.240Z,4.34
2018-02-11T07:36:58.231Z,4.25
2018-02-11T07:37:58.223Z,4.25
2018-02-11T07:38:58.218Z,4.40
2018-02-11T07:39:58.206Z,4.42
2018-02-11T07:40:58.194Z,4.29
2018-02-11T07:41:58.187Z,4.33
2018-02-11T07:43:07.215Z,4.32
2018-02-11T07:45:01.967Z,4.28
2018-02-11T07:45:52.612Z,4.29
2018-02-11T07:46:52.603Z,4.34
2018-02-11T07:47:52.814Z,4.22
2018-02-11T07:48:52.538Z,4.22
2018-02-11T07:49:52.532Z,4.32
2018-02-11T07:50:52.523Z,4.33
2018-02-11T07:51:52.530Z,4.39
2018-02-11T07:52:52.513Z,4.37
2018-02-11T07:53:52.516Z,4.33
2018-02-11T07:54:52.521Z,4.29
2018-02-11T07:55:52.527Z,4.37
2018-02-11T07:56:52.471Z,4.37
2018-02-11T07:57:52.460Z,4.40
2018-02-11T07:58:52.454Z,4.50
2018-02-11T07:59:52.442Z,4.40
2018-02-11T08:00:52.437Z,4.54
2018-02-11T08:01:52.469Z,4.39
2018-02-11T08:02:52.414Z,4.43
2018-02-11T08:03:52.402Z,4.51
2018-02-11T08:04:52.396Z,4.44
2018-02-11T08:05:52.390Z,4.51
2018-02-11T08:06:52.383Z,4.39
2018-02-11T08:07:52.371Z,4.42
2018-02-11T08:08:52.376Z,4.37
2018-02-11T08:09:52.356Z,4.50
2018-02-11T08:10:52.349Z,4.36
2018-02-11T08:11:52.352Z,4.33
2018-02-11T08:12:52.321Z,4.26
2018-02-11T08:13:52.314Z,4.10
2018-02-11T08:14:52.309Z,4.12
2018-02-11T08:15:52.292Z,4.18
2018-02-11T08:16:52.297Z,4.26
2018-02-11T08:17:52.289Z,4.22
2018-02-11T08:18:52.264Z,4.22
2018-02-11T08:19:52.260Z,4.04
2018-02-11T08:20:52.254Z,4.21
2018-02-11T08:21:52.240Z,3.98
2018-02-11T08:22:52.253Z,4.08
2018-02-11T08:23:52.219Z,4.04
2018-02-11T08:24:52.212Z,4.12
2018-02-11T08:25:52.198Z,3.98
2018-02-11T08:26:52.199Z,4.06
2018-02-11T08:27:52.185Z,4.03
2018-02-11T08:28:52.172Z,4.08
2018-02-11T08:29:52.162Z,4.08
2018-02-11T08:30:52.171Z,4.15
2018-02-11T08:32:01.159Z,4.14
2018-02-11T08:33:45.904Z,4.15
2018-02-11T08:34:46.973Z,4.19
2018-02-11T08:35:45.626Z,4.14
2018-02-11T08:36:45.642Z,4.14
2018-02-11T08:37:45.794Z,4.14
2018-02-11T08:38:45.596Z,4.15
2018-02-11T08:39:45.482Z,4.12
2018-02-11T08:40:45.452Z,4.18
2018-02-11T08:41:45.451Z,4.08
2018-02-11T08:42:45.438Z,4.16
2018-02-11T08:43:45.426Z,4.10
2018-02-11T08:44:45.426Z,4.00
2018-02-11T08:45:45.432Z,4.12
2018-02-11T08:46:45.495Z,4.04
2018-02-11T08:47:45.450Z,4.01
2018-02-11T08:48:45.407Z,3.97
2018-02-11T08:49:45.389Z,4.10
2018-02-11T08:50:45.407Z,4.10
2018-02-11T08:51:45.357Z,4.24
2018-02-11T08:52:45.349Z,4.01
2018-02-11T08:53:45.342Z,3.98
2018-02-11T08:54:45.418Z,4.08
2018-02-11T08:55:45.320Z,4.10
2018-02-11T08:56:45.310Z,4.06
2018-02-11T08:57:45.385Z,4.19
2018-02-11T08:58:45.297Z,4.19
2018-02-11T08:59:45.286Z,4.18
2018-02-11T09:00:45.306Z,4.19
2018-02-11T09:01:45.289Z,4.36
2018-02-11T09:02:45.345Z,4.22
2018-02-11T09:03:45.322Z,4.29
2018-02-11T09:04:45.294Z,4.40
2018-02-11T09:05:45.249Z,4.43
2018-02-11T09:06:45.386Z,4.37
2018-02-11T09:07:45.325Z,4.36
2018-02-11T09:08:45.275Z,4.37
2018-02-11T09:09:45.187Z,4.34
2018-02-11T09:10:45.178Z,4.43
2018-02-11T09:11:45.168Z,4.54
2018-02-11T09:12:45.162Z,4.39
2018-02-11T09:13:45.223Z,4.46
2018-02-11T09:14:45.201Z,4.69
2018-02-11T09:15:45.137Z,4.69
2018-02-11T09:16:45.190Z,4.65
2018-02-11T09:17:45.113Z,4.67
2018-02-11T09:18:54.152Z,4.75
2018-02-11T09:20:39.891Z,4.72
2018-02-11T09:23:35.758Z,4.98
2018-02-11T09:24:35.200Z,4.86
2018-02-11T09:25:33.148Z,4.96
2018-02-11T09:26:33.097Z,4.61
2018-02-11T09:27:32.923Z,4.84
2018-02-11T09:28:32.834Z,4.98
2018-02-11T09:29:32.830Z,4.83
2018-02-11T09:30:32.933Z,5.01
2018-02-11T09:31:32.811Z,4.79
2018-02-11T09:32:32.830Z,4.88
2018-02-11T09:33:32.840Z,4.83
2018-02-11T09:34:32.792Z,4.96
2018-02-11T09:35:32.844Z,4.96
2018-02-11T09:36:45.103Z,4.96
2018-02-11T09:38:29.937Z,4.92
2018-02-11T09:39:29.480Z,5.01
2018-02-11T09:40:29.255Z,4.94
2018-02-11T09:41:29.255Z,4.94
2018-02-11T09:42:38.891Z,5.02
2018-02-11T09:44:31.745Z,5.01
2018-02-11T09:45:22.872Z,4.89
2018-02-11T09:46:22.689Z,4.75
2018-02-11T09:47:22.567Z,4.89
2018-02-11T09:48:25.295Z,4.61
2018-02-11T09:49:22.471Z,4.52
2018-02-11T09:50:22.326Z,4.62
2018-02-11T09:51:22.319Z,4.70
2018-02-11T09:52:22.312Z,4.61
2018-02-11T09:53:22.306Z,4.84
2018-02-11T09:54:22.294Z,4.76
2018-02-11T09:55:22.289Z,4.73
2018-02-11T09:56:22.358Z,4.86
2018-02-11T09:57:22.269Z,4.73
2018-02-11T09:58:22.256Z,4.73
2018-02-11T09:59:22.261Z,4.98
2018-02-11T10:00:22.247Z,4.91
2018-02-11T10:01:22.249Z,4.88
2018-02-11T10:02:22.227Z,4.83
2018-02-11T10:03:22.214Z,4.91
2018-02-11T10:04:22.252Z,4.76
2018-02-11T10:05:22.196Z,4.83
2018-02-11T10:08:24.968Z,4.96
2018-02-11T10:09:15.752Z,4.94
2018-02-11T10:10:15.579Z,4.80
2018-02-11T10:11:15.644Z,4.75
2018-02-11T10:12:15.595Z,4.96
2018-02-11T10:13:15.606Z,4.83
2018-02-11T10:14:15.508Z,4.69
2018-02-11T10:15:15.498Z,4.80
2018-02-11T10:16:15.498Z,4.96
2018-02-11T10:17:15.481Z,4.86
2018-02-11T10:18:15.489Z,5.05
2018-02-11T10:19:15.465Z,4.99
2018-02-11T10:20:15.459Z,4.98
2018-02-11T10:21:15.446Z,4.92
2018-02-11T10:22:15.438Z,4.98
2018-02-11T10:23:15.431Z,5.07
2018-02-11T10:24:15.449Z,5.19
2018-02-11T10:25:15.412Z,5.16
2018-02-11T10:26:15.408Z,5.25
2018-02-11T10:27:15.394Z,5.28
2018-02-11T10:28:15.384Z,5.25
2018-02-11T10:29:15.377Z,5.34
2018-02-11T10:30:15.383Z,5.14
2018-02-11T10:31:15.368Z,5.19
2018-02-11T10:32:15.354Z,5.13
2018-02-11T10:33:15.343Z,5.07
2018-02-11T10:34:15.337Z,5.17
2018-02-11T10:35:15.329Z,5.25
2018-02-11T10:36:15.320Z,5.32
2018-02-11T10:37:15.314Z,5.45
2018-02-11T10:38:15.316Z,5.28
2018-02-11T10:39:15.293Z,5.35
2018-02-11T10:40:15.289Z,5.27
2018-02-11T10:41:15.276Z,5.13
2018-02-11T10:42:15.269Z,5.23
2018-02-11T10:43:15.260Z,5.14
2018-02-11T10:44:15.254Z,5.19
2018-02-11T10:45:15.280Z,5.31
2018-02-11T10:46:15.235Z,5.35
2018-02-11T10:47:15.225Z,5.32
2018-02-11T10:48:15.239Z,5.20
2018-02-11T10:49:24.912Z,5.27
2018-02-11T10:51:09.476Z,5.32
2018-02-11T10:52:08.660Z,5.28
2018-02-11T10:53:08.619Z,5.28
2018-02-11T10:54:08.562Z,5.23
2018-02-11T10:55:08.608Z,5.28
2018-02-11T10:56:08.649Z,5.37
2018-02-11T10:57:17.304Z,5.38
2018-02-11T10:59:02.297Z,5.43
2018-02-11T11:00:01.926Z,5.55
2018-02-11T11:01:02.116Z,5.31
2018-02-11T11:02:01.882Z,5.34
2018-02-11T11:03:01.940Z,5.32
2018-02-11T11:04:01.877Z,5.46
2018-02-11T11:05:01.887Z,5.43
2018-02-11T11:06:01.846Z,5.34
2018-02-11T11:07:10.698Z,5.37
2018-02-11T11:08:55.471Z,5.46
2018-02-11T11:09:55.265Z,5.45
2018-02-11T11:10:55.222Z,5.48
2018-02-11T11:11:55.195Z,5.46
2018-02-11T11:12:55.196Z,5.41
2018-02-11T11:13:55.363Z,5.32
2018-02-11T11:14:55.177Z,5.46
2018-02-11T11:15:55.161Z,5.50
2018-02-11T11:16:55.173Z,5.45
2018-02-11T11:17:55.146Z,5.45
2018-02-11T11:18:55.134Z,5.53
2018-02-11T11:19:55.154Z,5.55
2018-02-11T11:20:55.126Z,5.63
2018-02-11T11:21:55.113Z,5.67
2018-02-11T11:22:55.145Z,5.60
2018-02-11T11:23:55.095Z,5.63
2018-02-11T11:24:55.087Z,5.52
2018-02-11T11:25:55.079Z,5.55
2018-02-11T11:26:55.073Z,5.64
2018-02-11T11:27:55.063Z,5.70
2018-02-11T11:28:55.054Z,5.50
2018-02-11T11:29:55.046Z,5.64
2018-02-11T11:30:55.035Z,5.70
2018-02-11T11:31:55.028Z,5.66
2018-02-11T11:32:55.021Z,5.63
2018-02-11T11:33:55.013Z,5.74
2018-02-11T11:34:55.007Z,5.91
2018-02-11T11:35:54.995Z,5.81
2018-02-11T11:36:54.986Z,5.91
2018-02-11T11:37:54.979Z,5.98
2018-02-11T11:38:54.970Z,5.89
2018-02-11T11:39:54.981Z,5.71
2018-02-11T11:40:54.963Z,5.96
2018-02-11T11:41:54.957Z,5.98
2018-02-11T11:42:54.937Z,5.83
2018-02-11T11:43:54.951Z,5.82
2018-02-11T11:44:54.924Z,5.91
2018-02-11T11:45:54.916Z,5.88
2018-02-11T11:46:54.905Z,5.96
2018-02-11T11:47:54.898Z,6.04
2018-02-11T11:48:54.902Z,6.03
2018-02-11T11:49:54.886Z,5.98
2018-02-11T11:50:54.873Z,5.96
2018-02-11T11:51:54.874Z,5.93
2018-02-11T11:52:54.860Z,5.89
2018-02-11T11:53:54.859Z,5.89
2018-02-11T11:54:54.843Z,6.01
2018-02-11T11:55:54.834Z,6.22
2018-02-11T11:56:54.825Z,6.33
2018-02-11T11:57:54.821Z,6.28
2018-02-11T11:58:54.811Z,6.30
2018-02-11T11:59:54.804Z,6.41
2018-02-11T12:00:54.798Z,6.54
2018-02-11T12:01:54.792Z,6.38
2018-02-11T12:02:54.780Z,6.36
2018-02-11T12:03:54.772Z,6.46
2018-02-11T12:04:54.763Z,6.48
2018-02-11T12:05:54.759Z,6.46
2018-02-11T12:06:54.746Z,6.51
2018-02-11T12:07:54.740Z,6.58
2018-02-11T12:08:54.731Z,6.68
2018-02-11T12:10:03.549Z,6.71
2018-02-11T12:11:48.158Z,6.59
2018-02-11T12:12:48.180Z,6.62
2018-02-11T12:13:48.109Z,6.53
2018-02-11T12:14:48.085Z,6.63
2018-02-11T12:15:48.086Z,6.72
2018-02-11T12:16:48.081Z,6.84
2018-02-11T12:17:48.155Z,6.69
2018-02-11T12:18:48.274Z,6.71
2018-02-11T12:19:48.045Z,6.68
2018-02-11T12:20:48.087Z,6.66
2018-02-11T12:21:48.047Z,6.61
2018-02-11T12:22:48.026Z,6.71
2018-02-11T12:23:48.016Z,6.65
2018-02-11T12:24:48.011Z,6.47
2018-02-11T12:25:48.002Z,6.62
2018-02-11T12:26:48.011Z,6.69
2018-02-11T12:27:47.989Z,6.81
2018-02-11T12:28:47.981Z,6.73
2018-02-11T12:29:47.972Z,6.86
2018-02-11T12:30:47.963Z,6.71
2018-02-11T12:31:47.956Z,6.86
2018-02-11T12:32:47.951Z,6.89
2018-02-11T12:33:47.941Z,6.97
2018-02-11T12:34:47.934Z,7.04
2018-02-11T12:35:47.930Z,6.98
2018-02-11T12:36:47.922Z,6.99
2018-02-11T12:37:47.915Z,6.83
2018-02-11T12:38:47.905Z,6.81
2018-02-11T12:39:47.902Z,7.01
2018-02-11T12:40:47.891Z,6.95
2018-02-11T12:41:47.888Z,6.62
2018-02-11T12:42:47.934Z,6.76
2018-02-11T12:43:47.869Z,6.83
2018-02-11T12:44:47.863Z,6.90
2018-02-11T12:45:47.881Z,6.76
2018-02-11T12:46:47.854Z,6.80
2018-02-11T12:47:47.846Z,6.98
2018-02-11T12:48:47.832Z,6.81
2018-02-11T12:49:47.824Z,6.73
2018-02-11T12:50:47.823Z,6.65
2018-02-11T12:51:47.819Z,6.68
2018-02-11T12:52:47.812Z,6.68
2018-02-11T12:53:47.799Z,6.72
2018-02-11T12:54:47.820Z,6.69
2018-02-11T12:55:47.789Z,6.81
2018-02-11T12:56:47.782Z,6.95
2018-02-11T12:57:47.766Z,6.83
2018-02-11T12:58:47.758Z,6.95
2018-02-11T12:59:47.752Z,7.02
2018-02-11T13:00:47.765Z,7.12
2018-02-11T13:01:47.747Z,7.05
2018-02-11T13:02:47.732Z,6.89
2018-02-11T13:03:47.743Z,6.79
2018-02-11T13:04:47.716Z,6.79
2018-02-11T13:05:47.716Z,6.97
2018-02-11T13:06:47.701Z,7.02
2018-02-11T13:07:47.701Z,6.94
2018-02-11T13:08:47.691Z,7.04
2018-02-11T13:09:47.685Z,6.90
2018-02-11T13:10:47.674Z,6.99
2018-02-11T13:11:47.668Z,7.01
2018-02-11T13:12:47.690Z,7.07
2018-02-11T13:13:47.652Z,7.15
2018-02-11T13:14:47.644Z,7.31
2018-02-11T13:15:47.646Z,7.32
2018-02-11T13:16:47.633Z,7.23
2018-02-11T13:17:47.631Z,7.07
2018-02-11T13:18:47.672Z,7.12
2018-02-11T13:19:47.646Z,7.05
2018-02-11T13:20:47.605Z,7.08
2018-02-11T13:21:47.610Z,7.19
2018-02-11T13:22:56.408Z,7.26
2018-02-11T13:24:41.045Z,6.97
2018-02-11T13:25:40.977Z,6.97
2018-02-11T13:26:40.965Z,6.99
2018-02-11T13:27:40.962Z,6.95
2018-02-11T13:28:40.981Z,6.91
2018-02-11T13:29:41.063Z,6.91
2018-02-11T13:30:40.942Z,7.05
2018-02-11T13:31:40.927Z,6.90
2018-02-11T13:32:40.921Z,6.95
2018-02-11T13:33:40.913Z,6.91
2018-02-11T13:34:40.917Z,6.90
2018-02-11T13:35:40.903Z,7.09
2018-02-11T13:36:40.920Z,7.09
2018-02-11T13:37:40.889Z,6.99
2018-02-11T13:38:40.882Z,7.07
2018-02-11T13:39:40.872Z,7.09
2018-02-11T13:40:40.866Z,7.17
2018-02-11T13:41:40.866Z,7.08
2018-02-11T13:42:40.853Z,7.12
2018-02-11T13:43:40.844Z,7.09
2018-02-11T13:44:40.838Z,7.09
2018-02-11T13:45:40.836Z,7.32
2018-02-11T13:46:40.828Z,7.50
2018-02-11T13:47:40.818Z,7.32
2018-02-11T13:48:40.810Z,7.40
2018-02-11T13:49:40.810Z,7.42
2018-02-11T13:50:40.807Z,7.60
2018-02-11T13:51:40.791Z,7.53
2018-02-11T13:52:40.786Z,7.42
2018-02-11T13:53:40.802Z,7.38
2018-02-11T13:54:40.781Z,7.35
2018-02-11T13:55:40.763Z,7.45
2018-02-11T13:56:40.761Z,7.29
2018-02-11T13:57:40.770Z,7.40